sensor_id;sensor_type;location;lat;lon;timestamp;P1;durP1;ratioP1;P2;durP2;ratioP2
54263;SDS011;40178;53.042;6.406;2024-03-02T00:00:23;7.30;;;2.67;;
54263;SDS011;40178;53.042;6.406;2024-03-02T00:02:50;4.75;;;2.42;;
54263;SDS011;40178;53.042;6.406;2024-03-02T00:05:19;4.97;;;2.65;;
54263;SDS011;40178;53.042;6.406;2024-03-02T00:07:47;3.88;;;2.08;;
54263;SDS011;40178;53.042;6.406;2024-03-02T00:12:54;4.45;;;2.40;;
54263;SDS011;40178;53.042;6.406;2024-03-02T00:15:35;4.68;;;2.00;;
54263;SDS011;40178;53.042;6.406;2024-03-02T00:18:06;4.57;;;2.08;;
54263;SDS011;40178;53.042;6.406;2024-03-02T00:20:32;5.20;;;2.25;;
54263;SDS011;40178;53.042;6.406;2024-03-02T00:23:07;4.57;;;2.13;;
54263;SDS011;40178;53.042;6.406;2024-03-02T00:28:10;4.30;;;2.08;;
54263;SDS011;40178;53.042;6.406;2024-03-02T00:33:19;5.65;;;2.45;;
54263;SDS011;40178;53.042;6.406;2024-03-02T00:35:46;5.90;;;2.38;;
54263;SDS011;40178;53.042;6.406;2024-03-02T00:38:12;5.93;;;2.58;;
54263;SDS011;40178;53.042;6.406;2024-03-02T00:40:40;4.20;;;2.10;;
54263;SDS011;40178;53.042;6.406;2024-03-02T00:46:11;4.15;;;2.10;;
54263;SDS011;40178;53.042;6.406;2024-03-02T00:48:38;5.07;;;2.28;;
54263;SDS011;40178;53.042;6.406;2024-03-02T00:51:04;4.68;;;2.17;;
54263;SDS011;40178;53.042;6.406;2024-03-02T00:53:31;4.88;;;2.08;;
54263;SDS011;40178;53.042;6.406;2024-03-02T00:56:00;4.85;;;1.95;;
54263;SDS011;40178;53.042;6.406;2024-03-02T00:58:26;4.32;;;2.20;;
54263;SDS011;40178;53.042;6.406;2024-03-02T01:00:52;5.22;;;2.15;;
54263;SDS011;40178;53.042;6.406;2024-03-02T01:03:18;4.43;;;2.05;;
54263;SDS011;40178;53.042;6.406;2024-03-02T01:05:44;5.88;;;2.33;;
54263;SDS011;40178;53.042;6.406;2024-03-02T01:08:10;5.28;;;2.10;;
54263;SDS011;40178;53.042;6.406;2024-03-02T01:10:36;4.15;;;2.10;;
54263;SDS011;40178;53.042;6.406;2024-03-02T01:13:02;4.30;;;2.30;;
54263;SDS011;40178;53.042;6.406;2024-03-02T01:15:27;3.97;;;1.77;;
54263;SDS011;40178;53.042;6.406;2024-03-02T01:17:53;4.70;;;2.30;;
54263;SDS011;40178;53.042;6.406;2024-03-02T01:20:19;5.30;;;2.03;;
54263;SDS011;40178;53.042;6.406;2024-03-02T01:22:45;4.57;;;2.10;;
54263;SDS011;40178;53.042;6.406;2024-03-02T01:25:10;4.00;;;1.75;;
54263;SDS011;40178;53.042;6.406;2024-03-02T01:27:36;4.28;;;2.13;;
54263;SDS011;40178;53.042;6.406;2024-03-02T01:30:01;4.68;;;2.40;;
54263;SDS011;40178;53.042;6.406;2024-03-02T01:32:27;4.38;;;2.00;;
54263;SDS011;40178;53.042;6.406;2024-03-02T01:34:53;3.88;;;1.70;;
54263;SDS011;40178;53.042;6.406;2024-03-02T01:37:18;5.05;;;2.05;;
54263;SDS011;40178;53.042;6.406;2024-03-02T01:39:44;4.07;;;1.95;;
54263;SDS011;40178;53.042;6.406;2024-03-02T01:42:10;4.30;;;1.92;;
54263;SDS011;40178;53.042;6.406;2024-03-02T01:44:39;4.68;;;2.20;;
54263;SDS011;40178;53.042;6.406;2024-03-02T01:47:05;4.95;;;2.40;;
54263;SDS011;40178;53.042;6.406;2024-03-02T01:49:31;5.15;;;2.63;;
54263;SDS011;40178;53.042;6.406;2024-03-02T01:51:59;4.25;;;2.10;;
54263;SDS011;40178;53.042;6.406;2024-03-02T01:54:24;6.68;;;2.33;;
54263;SDS011;40178;53.042;6.406;2024-03-02T01:56:50;4.57;;;2.17;;
54263;SDS011;40178;53.042;6.406;2024-03-02T01:59:16;4.78;;;2.28;;
54263;SDS011;40178;53.042;6.406;2024-03-02T02:01:41;4.93;;;2.42;;
54263;SDS011;40178;53.042;6.406;2024-03-02T02:04:07;4.18;;;2.42;;
54263;SDS011;40178;53.042;6.406;2024-03-02T02:06:33;7.20;;;2.60;;
54263;SDS011;40178;53.042;6.406;2024-03-02T02:08:58;3.85;;;1.73;;
54263;SDS011;40178;53.042;6.406;2024-03-02T02:11:24;4.20;;;2.05;;
54263;SDS011;40178;53.042;6.406;2024-03-02T02:13:50;4.10;;;1.80;;
54263;SDS011;40178;53.042;6.406;2024-03-02T02:16:16;5.82;;;2.47;;
54263;SDS011;40178;53.042;6.406;2024-03-02T02:18:41;5.28;;;2.10;;
54263;SDS011;40178;53.042;6.406;2024-03-02T02:21:07;4.43;;;2.25;;
54263;SDS011;40178;53.042;6.406;2024-03-02T02:23:33;5.43;;;2.65;;
54263;SDS011;40178;53.042;6.406;2024-03-02T02:25:58;5.35;;;2.72;;
54263;SDS011;40178;53.042;6.406;2024-03-02T02:28:24;4.43;;;2.30;;
54263;SDS011;40178;53.042;6.406;2024-03-02T02:30:49;5.97;;;2.30;;
54263;SDS011;40178;53.042;6.406;2024-03-02T02:33:15;5.63;;;2.83;;
54263;SDS011;40178;53.042;6.406;2024-03-02T02:35:41;4.68;;;2.28;;
54263;SDS011;40178;53.042;6.406;2024-03-02T02:38:06;4.60;;;2.15;;
54263;SDS011;40178;53.042;6.406;2024-03-02T02:40:32;5.28;;;2.63;;
54263;SDS011;40178;53.042;6.406;2024-03-02T02:42:58;5.85;;;2.70;;
54263;SDS011;40178;53.042;6.406;2024-03-02T02:45:24;4.88;;;2.30;;
54263;SDS011;40178;53.042;6.406;2024-03-02T02:47:50;5.28;;;2.50;;
54263;SDS011;40178;53.042;6.406;2024-03-02T02:50:16;4.28;;;2.28;;
54263;SDS011;40178;53.042;6.406;2024-03-02T02:52:42;4.55;;;2.30;;
54263;SDS011;40178;53.042;6.406;2024-03-02T02:55:08;5.00;;;2.42;;
54263;SDS011;40178;53.042;6.406;2024-03-02T02:57:35;4.45;;;2.25;;
54263;SDS011;40178;53.042;6.406;2024-03-02T03:00:07;4.70;;;2.50;;
54263;SDS011;40178;53.042;6.406;2024-03-02T03:02:41;5.75;;;2.42;;
54263;SDS011;40178;53.042;6.406;2024-03-02T03:05:07;3.75;;;2.00;;
54263;SDS011;40178;53.042;6.406;2024-03-02T03:07:34;5.30;;;2.33;;
54263;SDS011;40178;53.042;6.406;2024-03-02T03:10:01;4.50;;;2.00;;
54263;SDS011;40178;53.042;6.406;2024-03-02T03:12:28;5.00;;;2.30;;
54263;SDS011;40178;53.042;6.406;2024-03-02T03:14:54;6.28;;;2.47;;
54263;SDS011;40178;53.042;6.406;2024-03-02T03:17:21;4.53;;;2.22;;
54263;SDS011;40178;53.042;6.406;2024-03-02T03:19:47;4.68;;;2.00;;
54263;SDS011;40178;53.042;6.406;2024-03-02T03:22:13;3.97;;;1.88;;
54263;SDS011;40178;53.042;6.406;2024-03-02T03:24:38;4.28;;;2.15;;
54263;SDS011;40178;53.042;6.406;2024-03-02T03:27:04;4.15;;;2.03;;
54263;SDS011;40178;53.042;6.406;2024-03-02T03:29:30;4.63;;;2.13;;
54263;SDS011;40178;53.042;6.406;2024-03-02T03:31:55;4.47;;;2.10;;
54263;SDS011;40178;53.042;6.406;2024-03-02T03:34:21;5.55;;;2.42;;
54263;SDS011;40178;53.042;6.406;2024-03-02T03:36:46;7.20;;;2.30;;
54263;SDS011;40178;53.042;6.406;2024-03-02T03:39:12;5.32;;;2.55;;
54263;SDS011;40178;53.042;6.406;2024-03-02T03:41:38;6.47;;;3.42;;
54263;SDS011;40178;53.042;6.406;2024-03-02T03:44:05;5.18;;;2.85;;
54263;SDS011;40178;53.042;6.406;2024-03-02T03:46:30;4.40;;;2.30;;
54263;SDS011;40178;53.042;6.406;2024-03-02T03:48:56;4.72;;;2.05;;
54263;SDS011;40178;53.042;6.406;2024-03-02T03:51:22;5.70;;;2.67;;
54263;SDS011;40178;53.042;6.406;2024-03-02T03:53:50;4.80;;;2.20;;
54263;SDS011;40178;53.042;6.406;2024-03-02T03:56:15;3.92;;;2.58;;
54263;SDS011;40178;53.042;6.406;2024-03-02T03:58:41;5.32;;;2.13;;
54263;SDS011;40178;53.042;6.406;2024-03-02T04:01:07;5.93;;;2.40;;
54263;SDS011;40178;53.042;6.406;2024-03-02T04:03:33;4.25;;;2.17;;
54263;SDS011;40178;53.042;6.406;2024-03-02T04:05:58;4.90;;;2.38;;
54263;SDS011;40178;53.042;6.406;2024-03-02T04:08:24;4.45;;;2.10;;
54263;SDS011;40178;53.042;6.406;2024-03-02T04:10:50;4.78;;;2.50;;
54263;SDS011;40178;53.042;6.406;2024-03-02T04:13:15;4.80;;;2.38;;
54263;SDS011;40178;53.042;6.406;2024-03-02T04:15:41;5.10;;;2.00;;
54263;SDS011;40178;53.042;6.406;2024-03-02T04:18:07;4.25;;;2.25;;
54263;SDS011;40178;53.042;6.406;2024-03-02T04:20:32;4.75;;;2.42;;
54263;SDS011;40178;53.042;6.406;2024-03-02T04:22:58;4.22;;;2.20;;
54263;SDS011;40178;53.042;6.406;2024-03-02T04:25:23;5.05;;;2.40;;
54263;SDS011;40178;53.042;6.406;2024-03-02T04:27:49;4.90;;;2.38;;
54263;SDS011;40178;53.042;6.406;2024-03-02T04:30:15;5.25;;;2.20;;
54263;SDS011;40178;53.042;6.406;2024-03-02T04:32:40;4.55;;;2.20;;
54263;SDS011;40178;53.042;6.406;2024-03-02T04:35:07;5.32;;;2.47;;
54263;SDS011;40178;53.042;6.406;2024-03-02T04:37:35;5.20;;;2.20;;
54263;SDS011;40178;53.042;6.406;2024-03-02T04:40:01;6.80;;;2.05;;
54263;SDS011;40178;53.042;6.406;2024-03-02T04:42:26;5.00;;;2.17;;
54263;SDS011;40178;53.042;6.406;2024-03-02T04:44:52;3.83;;;2.10;;
54263;SDS011;40178;53.042;6.406;2024-03-02T04:47:17;5.32;;;2.40;;
54263;SDS011;40178;53.042;6.406;2024-03-02T04:49:43;5.10;;;2.58;;
54263;SDS011;40178;53.042;6.406;2024-03-02T04:52:09;5.97;;;2.25;;
54263;SDS011;40178;53.042;6.406;2024-03-02T04:54:34;4.32;;;2.00;;
54263;SDS011;40178;53.042;6.406;2024-03-02T04:57:20;4.75;;;2.55;;
54263;SDS011;40178;53.042;6.406;2024-03-02T04:59:45;4.60;;;1.90;;
54263;SDS011;40178;53.042;6.406;2024-03-02T05:02:11;5.47;;;2.05;;
54263;SDS011;40178;53.042;6.406;2024-03-02T05:04:39;4.70;;;2.22;;
54263;SDS011;40178;53.042;6.406;2024-03-02T05:07:05;4.07;;;2.10;;
54263;SDS011;40178;53.042;6.406;2024-03-02T05:09:30;5.15;;;2.63;;
54263;SDS011;40178;53.042;6.406;2024-03-02T05:11:56;5.75;;;2.35;;
54263;SDS011;40178;53.042;6.406;2024-03-02T05:14:42;4.55;;;2.05;;
54263;SDS011;40178;53.042;6.406;2024-03-02T05:17:08;4.70;;;2.08;;
54263;SDS011;40178;53.042;6.406;2024-03-02T05:19:33;6.57;;;2.47;;
54263;SDS011;40178;53.042;6.406;2024-03-02T05:21:59;5.32;;;2.20;;
54263;SDS011;40178;53.042;6.406;2024-03-02T05:24:24;4.90;;;2.70;;
54263;SDS011;40178;53.042;6.406;2024-03-02T05:26:52;3.97;;;2.17;;
54263;SDS011;40178;53.042;6.406;2024-03-02T05:29:18;5.32;;;2.45;;
54263;SDS011;40178;53.042;6.406;2024-03-02T05:31:44;4.72;;;2.20;;
54263;SDS011;40178;53.042;6.406;2024-03-02T05:34:09;4.75;;;2.35;;
54263;SDS011;40178;53.042;6.406;2024-03-02T05:36:35;4.68;;;2.08;;
54263;SDS011;40178;53.042;6.406;2024-03-02T05:39:01;4.97;;;2.17;;
54263;SDS011;40178;53.042;6.406;2024-03-02T05:41:29;3.60;;;1.85;;
54263;SDS011;40178;53.042;6.406;2024-03-02T05:43:55;4.43;;;1.80;;
54263;SDS011;40178;53.042;6.406;2024-03-02T05:46:21;5.07;;;2.20;;
54263;SDS011;40178;53.042;6.406;2024-03-02T05:48:47;4.28;;;1.73;;
54263;SDS011;40178;53.042;6.406;2024-03-02T05:51:12;4.05;;;2.00;;
54263;SDS011;40178;53.042;6.406;2024-03-02T05:53:38;5.18;;;2.05;;
54263;SDS011;40178;53.042;6.406;2024-03-02T05:56:04;5.22;;;1.88;;
54263;SDS011;40178;53.042;6.406;2024-03-02T05:58:30;4.63;;;2.10;;
54263;SDS011;40178;53.042;6.406;2024-03-02T06:01:08;4.28;;;1.80;;
54263;SDS011;40178;53.042;6.406;2024-03-02T06:03:34;3.53;;;1.67;;
54263;SDS011;40178;53.042;6.406;2024-03-02T06:05:59;4.07;;;1.80;;
54263;SDS011;40178;53.042;6.406;2024-03-02T06:08:25;4.00;;;1.90;;
54263;SDS011;40178;53.042;6.406;2024-03-02T06:10:51;4.30;;;1.63;;
54263;SDS011;40178;53.042;6.406;2024-03-02T06:13:16;5.43;;;1.88;;
54263;SDS011;40178;53.042;6.406;2024-03-02T06:15:42;5.05;;;2.08;;
54263;SDS011;40178;53.042;6.406;2024-03-02T06:18:07;11.88;;;2.40;;
54263;SDS011;40178;53.042;6.406;2024-03-02T06:20:33;3.85;;;1.92;;
54263;SDS011;40178;53.042;6.406;2024-03-02T06:22:59;3.72;;;1.80;;
54263;SDS011;40178;53.042;6.406;2024-03-02T06:25:24;4.90;;;2.08;;
54263;SDS011;40178;53.042;6.406;2024-03-02T06:27:50;4.80;;;1.92;;
54263;SDS011;40178;53.042;6.406;2024-03-02T06:30:16;4.30;;;2.33;;
54263;SDS011;40178;53.042;6.406;2024-03-02T06:32:41;3.38;;;1.92;;
54263;SDS011;40178;53.042;6.406;2024-03-02T06:35:07;4.53;;;1.85;;
54263;SDS011;40178;53.042;6.406;2024-03-02T06:37:35;3.78;;;1.60;;
54263;SDS011;40178;53.042;6.406;2024-03-02T06:40:02;2.97;;;1.27;;
54263;SDS011;40178;53.042;6.406;2024-03-02T06:42:28;3.70;;;1.60;;
54263;SDS011;40178;53.042;6.406;2024-03-02T06:44:58;3.63;;;1.52;;
54263;SDS011;40178;53.042;6.406;2024-03-02T06:47:24;3.85;;;1.60;;
54263;SDS011;40178;53.042;6.406;2024-03-02T06:49:49;3.50;;;1.60;;
54263;SDS011;40178;53.042;6.406;2024-03-02T06:52:15;3.42;;;1.55;;
54263;SDS011;40178;53.042;6.406;2024-03-02T06:54:41;4.25;;;1.63;;
54263;SDS011;40178;53.042;6.406;2024-03-02T06:57:07;3.28;;;1.35;;
54263;SDS011;40178;53.042;6.406;2024-03-02T06:59:32;2.65;;;0.93;;
54263;SDS011;40178;53.042;6.406;2024-03-02T07:01:58;3.50;;;1.00;;
54263;SDS011;40178;53.042;6.406;2024-03-02T07:04:24;2.50;;;0.95;;
54263;SDS011;40178;53.042;6.406;2024-03-02T07:06:50;2.03;;;0.90;;
54263;SDS011;40178;53.042;6.406;2024-03-02T07:09:16;2.83;;;0.90;;
54263;SDS011;40178;53.042;6.406;2024-03-02T07:11:42;3.20;;;0.93;;
54263;SDS011;40178;53.042;6.406;2024-03-02T07:14:08;2.67;;;0.88;;
54263;SDS011;40178;53.042;6.406;2024-03-02T07:16:33;2.30;;;0.88;;
54263;SDS011;40178;53.042;6.406;2024-03-02T07:19:03;1.77;;;0.63;;
54263;SDS011;40178;53.042;6.406;2024-03-02T07:21:28;2.08;;;0.80;;
54263;SDS011;40178;53.042;6.406;2024-03-02T07:23:54;1.13;;;0.50;;
54263;SDS011;40178;53.042;6.406;2024-03-02T07:26:20;1.95;;;0.90;;
54263;SDS011;40178;53.042;6.406;2024-03-02T07:28:46;1.85;;;0.65;;
54263;SDS011;40178;53.042;6.406;2024-03-02T07:31:13;2.25;;;0.80;;
54263;SDS011;40178;53.042;6.406;2024-03-02T07:33:38;2.45;;;0.90;;
54263;SDS011;40178;53.042;6.406;2024-03-02T07:36:04;2.60;;;0.90;;
54263;SDS011;40178;53.042;6.406;2024-03-02T07:38:30;1.50;;;0.80;;
54263;SDS011;40178;53.042;6.406;2024-03-02T07:40:57;2.38;;;0.73;;
54263;SDS011;40178;53.042;6.406;2024-03-02T07:43:23;2.13;;;0.90;;
54263;SDS011;40178;53.042;6.406;2024-03-02T07:45:48;1.10;;;0.60;;
54263;SDS011;40178;53.042;6.406;2024-03-02T07:48:14;2.13;;;0.70;;
54263;SDS011;40178;53.042;6.406;2024-03-02T07:50:40;1.92;;;0.70;;
54263;SDS011;40178;53.042;6.406;2024-03-02T07:53:06;2.08;;;0.93;;
54263;SDS011;40178;53.042;6.406;2024-03-02T07:55:35;1.85;;;0.80;;
54263;SDS011;40178;53.042;6.406;2024-03-02T07:58:01;1.60;;;0.95;;
54263;SDS011;40178;53.042;6.406;2024-03-02T08:00:27;2.95;;;1.17;;
54263;SDS011;40178;53.042;6.406;2024-03-02T08:02:53;2.88;;;0.80;;
54263;SDS011;40178;53.042;6.406;2024-03-02T08:05:19;2.45;;;0.93;;
54263;SDS011;40178;53.042;6.406;2024-03-02T08:07:46;2.25;;;0.88;;
54263;SDS011;40178;53.042;6.406;2024-03-02T08:10:12;1.67;;;0.80;;
54263;SDS011;40178;53.042;6.406;2024-03-02T08:12:38;2.83;;;0.80;;
54263;SDS011;40178;53.042;6.406;2024-03-02T08:15:04;1.58;;;0.70;;
54263;SDS011;40178;53.042;6.406;2024-03-02T08:17:30;2.25;;;0.80;;
54263;SDS011;40178;53.042;6.406;2024-03-02T08:19:56;2.00;;;0.93;;
54263;SDS011;40178;53.042;6.406;2024-03-02T08:22:22;1.70;;;0.50;;
54263;SDS011;40178;53.042;6.406;2024-03-02T08:24:50;1.75;;;0.77;;
54263;SDS011;40178;53.042;6.406;2024-03-02T08:27:16;1.50;;;0.43;;
54263;SDS011;40178;53.042;6.406;2024-03-02T08:29:42;1.90;;;0.50;;
54263;SDS011;40178;53.042;6.406;2024-03-02T08:32:07;3.35;;;0.65;;
54263;SDS011;40178;53.042;6.406;2024-03-02T08:34:33;1.80;;;0.60;;
54263;SDS011;40178;53.042;6.406;2024-03-02T08:37:01;2.85;;;0.50;;
54263;SDS011;40178;53.042;6.406;2024-03-02T08:39:27;1.38;;;0.52;;
54263;SDS011;40178;53.042;6.406;2024-03-02T08:41:53;1.63;;;0.50;;
54263;SDS011;40178;53.042;6.406;2024-03-02T08:44:19;1.15;;;0.50;;
54263;SDS011;40178;53.042;6.406;2024-03-02T08:46:45;1.83;;;0.47;;
54263;SDS011;40178;53.042;6.406;2024-03-02T08:49:11;1.45;;;0.50;;
54263;SDS011;40178;53.042;6.406;2024-03-02T08:51:37;1.58;;;0.55;;
54263;SDS011;40178;53.042;6.406;2024-03-02T08:54:03;1.23;;;0.43;;
54263;SDS011;40178;53.042;6.406;2024-03-02T08:56:29;3.35;;;0.55;;
54263;SDS011;40178;53.042;6.406;2024-03-02T08:58:56;1.33;;;0.47;;
54263;SDS011;40178;53.042;6.406;2024-03-02T09:01:21;1.65;;;0.52;;
54263;SDS011;40178;53.042;6.406;2024-03-02T09:03:47;3.17;;;1.60;;
54263;SDS011;40178;53.042;6.406;2024-03-02T09:06:14;2.72;;;0.47;;
54263;SDS011;40178;53.042;6.406;2024-03-02T09:08:42;1.88;;;0.40;;
54263;SDS011;40178;53.042;6.406;2024-03-02T09:11:08;2.28;;;0.47;;
54263;SDS011;40178;53.042;6.406;2024-03-02T09:13:34;1.60;;;0.28;;
54263;SDS011;40178;53.042;6.406;2024-03-02T09:16:00;3.17;;;0.80;;
54263;SDS011;40178;53.042;6.406;2024-03-02T09:18:26;1.13;;;0.50;;
54263;SDS011;40178;53.042;6.406;2024-03-02T09:20:52;1.63;;;0.50;;
54263;SDS011;40178;53.042;6.406;2024-03-02T09:23:17;1.38;;;0.50;;
54263;SDS011;40178;53.042;6.406;2024-03-02T09:25:43;3.85;;;0.55;;
54263;SDS011;40178;53.042;6.406;2024-03-02T09:28:09;1.10;;;0.40;;
54263;SDS011;40178;53.042;6.406;2024-03-02T09:30:35;1.63;;;0.38;;
54263;SDS011;40178;53.042;6.406;2024-03-02T09:33:00;2.75;;;0.47;;
54263;SDS011;40178;53.042;6.406;2024-03-02T09:35:26;2.53;;;0.47;;
54263;SDS011;40178;53.042;6.406;2024-03-02T09:37:52;2.30;;;0.68;;
54263;SDS011;40178;53.042;6.406;2024-03-02T09:40:17;1.67;;;0.30;;
54263;SDS011;40178;53.042;6.406;2024-03-02T09:42:47;3.60;;;0.57;;
54263;SDS011;40178;53.042;6.406;2024-03-02T09:45:18;1.63;;;0.50;;
54263;SDS011;40178;53.042;6.406;2024-03-02T09:47:48;1.55;;;0.43;;
54263;SDS011;40178;53.042;6.406;2024-03-02T09:50:14;3.13;;;0.40;;
54263;SDS011;40178;53.042;6.406;2024-03-02T09:52:40;1.42;;;0.30;;
54263;SDS011;40178;53.042;6.406;2024-03-02T09:55:07;1.52;;;0.40;;
54263;SDS011;40178;53.042;6.406;2024-03-02T09:57:33;1.83;;;0.52;;
54263;SDS011;40178;53.042;6.406;2024-03-02T09:59:59;3.13;;;0.47;;
54263;SDS011;40178;53.042;6.406;2024-03-02T10:02:25;2.58;;;0.43;;
54263;SDS011;40178;53.042;6.406;2024-03-02T10:04:51;1.77;;;0.30;;
54263;SDS011;40178;53.042;6.406;2024-03-02T10:07:17;3.50;;;0.50;;
54263;SDS011;40178;53.042;6.406;2024-03-02T10:09:44;2.97;;;0.50;;
54263;SDS011;40178;53.042;6.406;2024-03-02T10:12:11;2.55;;;0.50;;
54263;SDS011;40178;53.042;6.406;2024-03-02T10:14:38;1.15;;;0.52;;
54263;SDS011;40178;53.042;6.406;2024-03-02T10:17:05;1.88;;;0.50;;
54263;SDS011;40178;53.042;6.406;2024-03-02T10:19:32;1.55;;;0.60;;
54263;SDS011;40178;53.042;6.406;2024-03-02T10:22:00;2.10;;;0.60;;
54263;SDS011;40178;53.042;6.406;2024-03-02T10:24:27;1.75;;;0.30;;
54263;SDS011;40178;53.042;6.406;2024-03-02T10:27:22;3.05;;;0.50;;
54263;SDS011;40178;53.042;6.406;2024-03-02T10:29:51;1.38;;;0.30;;
54263;SDS011;40178;53.042;6.406;2024-03-02T10:32:17;3.08;;;0.40;;
54263;SDS011;40178;53.042;6.406;2024-03-02T10:34:43;1.77;;;0.40;;
54263;SDS011;40178;53.042;6.406;2024-03-02T10:37:10;3.83;;;0.43;;
54263;SDS011;40178;53.042;6.406;2024-03-02T10:39:37;3.30;;;0.50;;
54263;SDS011;40178;53.042;6.406;2024-03-02T10:42:05;2.85;;;0.57;;
54263;SDS011;40178;53.042;6.406;2024-03-02T10:44:31;1.27;;;0.20;;
54263;SDS011;40178;53.042;6.406;2024-03-02T10:47:01;3.08;;;0.50;;
54263;SDS011;40178;53.042;6.406;2024-03-02T10:49:30;1.02;;;0.20;;
54263;SDS011;40178;53.042;6.406;2024-03-02T10:52:00;3.10;;;0.35;;
54263;SDS011;40178;53.042;6.406;2024-03-02T10:54:26;2.45;;;0.60;;
54263;SDS011;40178;53.042;6.406;2024-03-02T10:56:54;2.58;;;0.30;;
54263;SDS011;40178;53.042;6.406;2024-03-02T11:02:02;2.15;;;0.52;;
54263;SDS011;40178;53.042;6.406;2024-03-02T11:04:29;2.05;;;0.50;;
54263;SDS011;40178;53.042;6.406;2024-03-02T11:06:58;3.38;;;0.68;;
54263;SDS011;40178;53.042;6.406;2024-03-02T11:09:28;3.95;;;0.50;;
54263;SDS011;40178;53.042;6.406;2024-03-02T11:12:06;3.10;;;0.50;;
54263;SDS011;40178;53.042;6.406;2024-03-02T11:14:40;2.90;;;0.32;;
54263;SDS011;40178;53.042;6.406;2024-03-02T11:17:10;1.75;;;0.50;;
54263;SDS011;40178;53.042;6.406;2024-03-02T11:19:38;2.85;;;0.50;;
54263;SDS011;40178;53.042;6.406;2024-03-02T11:22:05;1.67;;;0.30;;
54263;SDS011;40178;53.042;6.406;2024-03-02T11:24:31;3.42;;;0.80;;
54263;SDS011;40178;53.042;6.406;2024-03-02T11:27:01;0.80;;;0.28;;
54263;SDS011;40178;53.042;6.406;2024-03-02T11:32:04;1.67;;;0.50;;
54263;SDS011;40178;53.042;6.406;2024-03-02T11:34:44;2.08;;;0.40;;
54263;SDS011;40178;53.042;6.406;2024-03-02T11:37:15;1.85;;;0.32;;
54263;SDS011;40178;53.042;6.406;2024-03-02T11:39:42;1.58;;;0.30;;
54263;SDS011;40178;53.042;6.406;2024-03-02T11:42:14;3.40;;;0.40;;
54263;SDS011;40178;53.042;6.406;2024-03-02T11:44:42;2.17;;;0.40;;
54263;SDS011;40178;53.042;6.406;2024-03-02T11:47:10;1.17;;;0.30;;
54263;SDS011;40178;53.042;6.406;2024-03-02T11:52:11;3.90;;;0.60;;
54263;SDS011;40178;53.042;6.406;2024-03-02T11:54:38;2.97;;;0.75;;
54263;SDS011;40178;53.042;6.406;2024-03-02T11:57:05;1.33;;;0.40;;
54263;SDS011;40178;53.042;6.406;2024-03-02T11:59:32;1.80;;;0.40;;
54263;SDS011;40178;53.042;6.406;2024-03-02T12:01:58;3.65;;;0.60;;
54263;SDS011;40178;53.042;6.406;2024-03-02T12:04:24;1.00;;;0.30;;
54263;SDS011;40178;53.042;6.406;2024-03-02T12:06:54;1.35;;;0.30;;
54263;SDS011;40178;53.042;6.406;2024-03-02T12:09:25;2.13;;;0.30;;
54263;SDS011;40178;53.042;6.406;2024-03-02T12:12:02;2.75;;;0.30;;
54263;SDS011;40178;53.042;6.406;2024-03-02T12:14:28;1.83;;;0.30;;
54263;SDS011;40178;53.042;6.406;2024-03-02T12:16:57;1.70;;;0.40;;
54263;SDS011;40178;53.042;6.406;2024-03-02T12:19:24;1.85;;;0.30;;
54263;SDS011;40178;53.042;6.406;2024-03-02T12:21:50;0.88;;;0.30;;
54263;SDS011;40178;53.042;6.406;2024-03-02T12:24:16;2.95;;;0.60;;
54263;SDS011;40178;53.042;6.406;2024-03-02T12:26:42;1.42;;;0.50;;
54263;SDS011;40178;53.042;6.406;2024-03-02T12:29:08;2.90;;;0.40;;
54263;SDS011;40178;53.042;6.406;2024-03-02T12:31:34;5.32;;;0.40;;
54263;SDS011;40178;53.042;6.406;2024-03-02T12:34:00;1.50;;;0.80;;
54263;SDS011;40178;53.042;6.406;2024-03-02T12:36:27;2.85;;;0.50;;
54263;SDS011;40178;53.042;6.406;2024-03-02T12:38:53;4.20;;;0.50;;
54263;SDS011;40178;53.042;6.406;2024-03-02T12:41:20;1.38;;;0.32;;
54263;SDS011;40178;53.042;6.406;2024-03-02T12:43:46;4.05;;;0.63;;
54263;SDS011;40178;53.042;6.406;2024-03-02T12:46:11;2.28;;;0.45;;
54263;SDS011;40178;53.042;6.406;2024-03-02T12:48:37;2.10;;;0.60;;
54263;SDS011;40178;53.042;6.406;2024-03-02T12:51:06;3.08;;;0.82;;
54263;SDS011;40178;53.042;6.406;2024-03-02T12:53:31;2.55;;;0.50;;
54263;SDS011;40178;53.042;6.406;2024-03-02T12:55:57;2.17;;;0.63;;
54263;SDS011;40178;53.042;6.406;2024-03-02T12:58:23;3.38;;;0.70;;
54263;SDS011;40178;53.042;6.406;2024-03-02T13:00:49;3.25;;;0.50;;
54263;SDS011;40178;53.042;6.406;2024-03-02T13:03:17;2.72;;;0.80;;
54263;SDS011;40178;53.042;6.406;2024-03-02T13:05:48;3.00;;;0.55;;
54263;SDS011;40178;53.042;6.406;2024-03-02T13:08:14;2.42;;;0.80;;
54263;SDS011;40178;53.042;6.406;2024-03-02T13:10:41;2.08;;;0.85;;
54263;SDS011;40178;53.042;6.406;2024-03-02T13:13:07;3.83;;;1.02;;
54263;SDS011;40178;53.042;6.406;2024-03-02T13:15:33;3.10;;;0.82;;
54263;SDS011;40178;53.042;6.406;2024-03-02T13:17:59;3.47;;;0.85;;
54263;SDS011;40178;53.042;6.406;2024-03-02T13:20:32;2.85;;;1.00;;
54263;SDS011;40178;53.042;6.406;2024-03-02T13:22:57;2.45;;;0.80;;
54263;SDS011;40178;53.042;6.406;2024-03-02T13:25:23;2.45;;;1.20;;
54263;SDS011;40178;53.042;6.406;2024-03-02T13:27:49;3.22;;;1.40;;
54263;SDS011;40178;53.042;6.406;2024-03-02T13:30:14;4.25;;;1.90;;
54263;SDS011;40178;53.042;6.406;2024-03-02T13:32:40;3.75;;;2.05;;
54263;SDS011;40178;53.042;6.406;2024-03-02T13:35:06;3.88;;;1.55;;
54263;SDS011;40178;53.042;6.406;2024-03-02T13:37:31;6.25;;;1.48;;
54263;SDS011;40178;53.042;6.406;2024-03-02T13:39:57;3.70;;;1.60;;
54263;SDS011;40178;53.042;6.406;2024-03-02T13:42:23;4.30;;;1.88;;
54263;SDS011;40178;53.042;6.406;2024-03-02T13:44:48;3.72;;;1.10;;
54263;SDS011;40178;53.042;6.406;2024-03-02T13:47:16;3.10;;;1.00;;
54263;SDS011;40178;53.042;6.406;2024-03-02T13:49:42;1.70;;;0.70;;
54263;SDS011;40178;53.042;6.406;2024-03-02T13:52:10;2.53;;;0.98;;
54263;SDS011;40178;53.042;6.406;2024-03-02T13:54:38;3.92;;;1.10;;
54263;SDS011;40178;53.042;6.406;2024-03-02T13:57:05;2.95;;;1.05;;
54263;SDS011;40178;53.042;6.406;2024-03-02T13:59:30;2.08;;;1.02;;
54263;SDS011;40178;53.042;6.406;2024-03-02T14:01:56;3.63;;;1.20;;
54263;SDS011;40178;53.042;6.406;2024-03-02T14:04:22;3.70;;;1.70;;
54263;SDS011;40178;53.042;6.406;2024-03-02T14:06:48;5.22;;;1.85;;
54263;SDS011;40178;53.042;6.406;2024-03-02T14:09:13;3.38;;;1.60;;
54263;SDS011;40178;53.042;6.406;2024-03-02T14:11:39;4.07;;;2.15;;
54263;SDS011;40178;53.042;6.406;2024-03-02T14:14:04;4.43;;;2.47;;
54263;SDS011;40178;53.042;6.406;2024-03-02T14:16:30;7.32;;;3.15;;
54263;SDS011;40178;53.042;6.406;2024-03-02T14:18:56;6.82;;;3.80;;
54263;SDS011;40178;53.042;6.406;2024-03-02T14:21:21;7.15;;;3.38;;
54263;SDS011;40178;53.042;6.406;2024-03-02T14:23:47;7.20;;;3.60;;
54263;SDS011;40178;53.042;6.406;2024-03-02T14:26:12;5.70;;;3.70;;
54263;SDS011;40178;53.042;6.406;2024-03-02T14:28:38;6.30;;;3.53;;
54263;SDS011;40178;53.042;6.406;2024-03-02T14:31:04;7.20;;;3.60;;
54263;SDS011;40178;53.042;6.406;2024-03-02T14:33:29;7.57;;;3.58;;
54263;SDS011;40178;53.042;6.406;2024-03-02T14:35:55;7.45;;;3.60;;
54263;SDS011;40178;53.042;6.406;2024-03-02T14:38:21;7.82;;;3.50;;
54263;SDS011;40178;53.042;6.406;2024-03-02T14:40:47;5.97;;;3.00;;
54263;SDS011;40178;53.042;6.406;2024-03-02T14:43:12;6.00;;;2.92;;
54263;SDS011;40178;53.042;6.406;2024-03-02T14:45:38;4.80;;;2.55;;
54263;SDS011;40178;53.042;6.406;2024-03-02T14:48:04;10.57;;;3.10;;
54263;SDS011;40178;53.042;6.406;2024-03-02T14:50:30;4.72;;;2.00;;
54263;SDS011;40178;53.042;6.406;2024-03-02T14:52:55;8.38;;;2.30;;
54263;SDS011;40178;53.042;6.406;2024-03-02T14:55:22;5.00;;;1.95;;
54263;SDS011;40178;53.042;6.406;2024-03-02T14:57:48;11.02;;;2.90;;
54263;SDS011;40178;53.042;6.406;2024-03-02T15:00:14;4.97;;;1.70;;
54263;SDS011;40178;53.042;6.406;2024-03-02T15:02:40;2.95;;;1.17;;